sensor_id;sensor_type;location;lat;lon;timestamp;P1;durP1;ratioP1;P2;durP2;ratioP2
73585;SDS011;61865;50.232;18.614;2023-11-25T00:01:17;14.23;;;5.70;;
73585;SDS011;61865;50.232;18.614;2023-11-25T00:03:40;11.98;;;5.28;;
73585;SDS011;61865;50.232;18.614;2023-11-25T00:06:02;14.20;;;5.18;;
73585;SDS011;61865;50.232;18.614;2023-11-25T00:08:27;10.85;;;4.82;;
73585;SDS011;61865;50.232;18.614;2023-11-25T00:10:49;11.55;;;5.53;;
73585;SDS011;61865;50.232;18.614;2023-11-25T00:13:11;11.45;;;5.40;;
73585;SDS011;61865;50.232;18.614;2023-11-25T00:15:35;24.88;;;8.73;;
73585;SDS011;61865;50.232;18.614;2023-11-25T00:17:57;18.50;;;8.88;;
73585;SDS011;61865;50.232;18.614;2023-11-25T00:20:20;23.10;;;9.15;;
73585;SDS011;61865;50.232;18.614;2023-11-25T00:22:42;12.50;;;6.53;;
73585;SDS011;61865;50.232;18.614;2023-11-25T00:25:06;11.95;;;6.75;;
73585;SDS011;61865;50.232;18.614;2023-11-25T00:27:29;16.20;;;7.15;;
73585;SDS011;61865;50.232;18.614;2023-11-25T00:29:51;13.55;;;6.57;;
73585;SDS011;61865;50.232;18.614;2023-11-25T00:32:13;17.63;;;7.43;;
73585;SDS011;61865;50.232;18.614;2023-11-25T00:34:36;18.85;;;6.97;;
73585;SDS011;61865;50.232;18.614;2023-11-25T00:36:58;17.05;;;7.78;;
73585;SDS011;61865;50.232;18.614;2023-11-25T00:39:21;16.67;;;8.82;;
73585;SDS011;61865;50.232;18.614;2023-11-25T00:41:45;14.05;;;6.50;;
73585;SDS011;61865;50.232;18.614;2023-11-25T00:44:08;12.18;;;6.38;;
73585;SDS011;61865;50.232;18.614;2023-11-25T00:46:30;12.98;;;7.90;;
73585;SDS011;61865;50.232;18.614;2023-11-25T00:48:52;20.60;;;8.65;;
73585;SDS011;61865;50.232;18.614;2023-11-25T00:51:15;17.65;;;8.10;;
73585;SDS011;61865;50.232;18.614;2023-11-25T00:53:37;18.20;;;8.45;;
73585;SDS011;61865;50.232;18.614;2023-11-25T00:55:59;16.13;;;6.63;;
73585;SDS011;61865;50.232;18.614;2023-11-25T00:58:23;16.50;;;6.80;;
73585;SDS011;61865;50.232;18.614;2023-11-25T01:00:45;13.70;;;6.95;;
73585;SDS011;61865;50.232;18.614;2023-11-25T01:03:08;14.93;;;6.45;;
73585;SDS011;61865;50.232;18.614;2023-11-25T01:05:30;15.57;;;7.00;;
73585;SDS011;61865;50.232;18.614;2023-11-25T01:07:52;13.98;;;6.78;;
73585;SDS011;61865;50.232;18.614;2023-11-25T01:10:15;10.43;;;5.53;;
73585;SDS011;61865;50.232;18.614;2023-11-25T01:12:38;10.02;;;5.38;;
73585;SDS011;61865;50.232;18.614;2023-11-25T01:15:03;8.40;;;5.00;;
73585;SDS011;61865;50.232;18.614;2023-11-25T01:17:25;11.80;;;5.68;;
73585;SDS011;61865;50.232;18.614;2023-11-25T01:19:50;12.85;;;6.13;;
73585;SDS011;61865;50.232;18.614;2023-11-25T01:22:12;10.35;;;5.28;;
73585;SDS011;61865;50.232;18.614;2023-11-25T01:24:34;12.13;;;5.95;;
73585;SDS011;61865;50.232;18.614;2023-11-25T01:26:57;8.73;;;5.32;;
73585;SDS011;61865;50.232;18.614;2023-11-25T01:29:19;9.18;;;5.32;;
73585;SDS011;61865;50.232;18.614;2023-11-25T01:31:44;16.55;;;5.55;;
73585;SDS011;61865;50.232;18.614;2023-11-25T01:34:06;11.85;;;5.90;;
73585;SDS011;61865;50.232;18.614;2023-11-25T01:36:28;11.80;;;6.18;;
73585;SDS011;61865;50.232;18.614;2023-11-25T01:38:51;12.15;;;6.80;;
73585;SDS011;61865;50.232;18.614;2023-11-25T01:41:14;15.00;;;6.40;;
73585;SDS011;61865;50.232;18.614;2023-11-25T01:43:37;10.13;;;6.95;;
73585;SDS011;61865;50.232;18.614;2023-11-25T01:46:00;15.68;;;6.45;;
73585;SDS011;61865;50.232;18.614;2023-11-25T01:48:26;8.88;;;5.93;;
73585;SDS011;61865;50.232;18.614;2023-11-25T01:50:48;9.05;;;5.85;;
73585;SDS011;61865;50.232;18.614;2023-11-25T01:53:11;11.13;;;5.85;;
73585;SDS011;61865;50.232;18.614;2023-11-25T01:55:34;10.13;;;5.53;;
73585;SDS011;61865;50.232;18.614;2023-11-25T01:57:56;11.63;;;5.38;;
73585;SDS011;61865;50.232;18.614;2023-11-25T02:00:19;6.63;;;4.03;;
73585;SDS011;61865;50.232;18.614;2023-11-25T02:02:43;10.20;;;4.82;;
73585;SDS011;61865;50.232;18.614;2023-11-25T02:05:07;8.52;;;3.60;;
73585;SDS011;61865;50.232;18.614;2023-11-25T02:07:30;10.95;;;4.70;;
73585;SDS011;61865;50.232;18.614;2023-11-25T02:09:52;9.23;;;5.13;;
73585;SDS011;61865;50.232;18.614;2023-11-25T02:12:15;12.50;;;3.90;;
73585;SDS011;61865;50.232;18.614;2023-11-25T02:14:37;7.78;;;4.90;;
73585;SDS011;61865;50.232;18.614;2023-11-25T02:17:00;8.00;;;4.40;;
73585;SDS011;61865;50.232;18.614;2023-11-25T02:19:22;8.50;;;4.45;;
73585;SDS011;61865;50.232;18.614;2023-11-25T02:21:47;5.95;;;3.88;;
73585;SDS011;61865;50.232;18.614;2023-11-25T02:24:11;9.00;;;3.70;;
73585;SDS011;61865;50.232;18.614;2023-11-25T02:26:33;7.72;;;4.30;;
73585;SDS011;61865;50.232;18.614;2023-11-25T02:28:56;5.38;;;4.07;;
73585;SDS011;61865;50.232;18.614;2023-11-25T02:31:18;7.90;;;3.83;;
73585;SDS011;61865;50.232;18.614;2023-11-25T02:33:40;6.18;;;4.00;;
73585;SDS011;61865;50.232;18.614;2023-11-25T02:36:03;5.75;;;3.90;;
73585;SDS011;61865;50.232;18.614;2023-11-25T02:38:28;6.75;;;3.97;;
73585;SDS011;61865;50.232;18.614;2023-11-25T02:40:51;6.28;;;3.78;;
73585;SDS011;61865;50.232;18.614;2023-11-25T02:43:14;8.05;;;5.45;;
73585;SDS011;61865;50.232;18.614;2023-11-25T02:45:37;8.82;;;5.32;;
73585;SDS011;61865;50.232;18.614;2023-11-25T02:48:02;9.60;;;5.70;;
73585;SDS011;61865;50.232;18.614;2023-11-25T02:50:25;13.85;;;8.32;;
73585;SDS011;61865;50.232;18.614;2023-11-25T02:52:48;13.35;;;7.78;;
73585;SDS011;61865;50.232;18.614;2023-11-25T02:55:10;25.15;;;9.65;;
73585;SDS011;61865;50.232;18.614;2023-11-25T02:57:34;16.42;;;10.60;;
73585;SDS011;61865;50.232;18.614;2023-11-25T02:59:56;21.42;;;8.73;;
73585;SDS011;61865;50.232;18.614;2023-11-25T03:02:20;14.98;;;10.48;;
73585;SDS011;61865;50.232;18.614;2023-11-25T03:04:44;11.57;;;8.15;;
73585;SDS011;61865;50.232;18.614;2023-11-25T03:07:08;16.83;;;11.45;;
73585;SDS011;61865;50.232;18.614;2023-11-25T03:09:30;17.98;;;10.10;;
73585;SDS011;61865;50.232;18.614;2023-11-25T03:11:53;18.33;;;9.18;;
73585;SDS011;61865;50.232;18.614;2023-11-25T03:14:19;17.42;;;10.77;;
73585;SDS011;61865;50.232;18.614;2023-11-25T03:16:42;16.83;;;11.15;;
73585;SDS011;61865;50.232;18.614;2023-11-25T03:19:04;16.40;;;12.00;;
73585;SDS011;61865;50.232;18.614;2023-11-25T03:21:29;15.25;;;11.38;;
73585;SDS011;61865;50.232;18.614;2023-11-25T03:23:52;21.58;;;14.07;;
73585;SDS011;61865;50.232;18.614;2023-11-25T03:26:14;26.48;;;15.07;;
73585;SDS011;61865;50.232;18.614;2023-11-25T03:28:36;25.83;;;16.17;;
73585;SDS011;61865;50.232;18.614;2023-11-25T03:31:00;30.30;;;19.20;;
73585;SDS011;61865;50.232;18.614;2023-11-25T03:33:24;23.35;;;15.65;;
73585;SDS011;61865;50.232;18.614;2023-11-25T03:35:47;18.05;;;11.85;;
73585;SDS011;61865;50.232;18.614;2023-11-25T03:38:09;24.25;;;11.77;;
73585;SDS011;61865;50.232;18.614;2023-11-25T03:40:31;15.75;;;11.43;;
73585;SDS011;61865;50.232;18.614;2023-11-25T03:42:55;13.70;;;9.13;;
73585;SDS011;61865;50.232;18.614;2023-11-25T03:45:18;12.80;;;8.55;;
73585;SDS011;61865;50.232;18.614;2023-11-25T03:47:43;16.23;;;9.05;;
73585;SDS011;61865;50.232;18.614;2023-11-25T03:50:05;13.07;;;9.93;;
73585;SDS011;61865;50.232;18.614;2023-11-25T03:52:28;10.23;;;8.00;;
73585;SDS011;61865;50.232;18.614;2023-11-25T03:54:51;11.10;;;8.63;;
73585;SDS011;61865;50.232;18.614;2023-11-25T03:57:14;11.52;;;8.73;;
73585;SDS011;61865;50.232;18.614;2023-11-25T03:59:36;10.80;;;6.75;;
73585;SDS011;61865;50.232;18.614;2023-11-25T04:01:59;15.68;;;9.52;;
73585;SDS011;61865;50.232;18.614;2023-11-25T04:04:22;14.82;;;9.98;;
73585;SDS011;61865;50.232;18.614;2023-11-25T04:06:46;52.45;;;16.33;;
73585;SDS011;61865;50.232;18.614;2023-11-25T04:09:08;21.27;;;13.60;;
73585;SDS011;61865;50.232;18.614;2023-11-25T04:11:31;18.33;;;10.20;;
73585;SDS011;61865;50.232;18.614;2023-11-25T04:13:53;6.50;;;4.00;;
73585;SDS011;61865;50.232;18.614;2023-11-25T04:16:18;4.65;;;3.08;;
73585;SDS011;61865;50.232;18.614;2023-11-25T04:18:40;5.38;;;3.30;;
73585;SDS011;61865;50.232;18.614;2023-11-25T04:21:04;5.05;;;3.30;;
73585;SDS011;61865;50.232;18.614;2023-11-25T04:23:26;6.80;;;5.32;;
73585;SDS011;61865;50.232;18.614;2023-11-25T04:25:50;10.73;;;6.97;;
73585;SDS011;61865;50.232;18.614;2023-11-25T04:28:14;11.25;;;6.72;;
73585;SDS011;61865;50.232;18.614;2023-11-25T04:30:36;7.93;;;5.05;;
73585;SDS011;61865;50.232;18.614;2023-11-25T04:32:58;9.00;;;6.40;;
73585;SDS011;61865;50.232;18.614;2023-11-25T04:35:20;9.77;;;5.80;;
73585;SDS011;61865;50.232;18.614;2023-11-25T04:37:44;8.60;;;5.68;;
73585;SDS011;61865;50.232;18.614;2023-11-25T04:40:08;9.32;;;4.93;;
73585;SDS011;61865;50.232;18.614;2023-11-25T04:42:31;8.07;;;5.75;;
73585;SDS011;61865;50.232;18.614;2023-11-25T04:44:54;8.32;;;6.63;;
73585;SDS011;61865;50.232;18.614;2023-11-25T04:47:16;8.07;;;5.43;;
73585;SDS011;61865;50.232;18.614;2023-11-25T04:49:39;11.63;;;6.35;;
73585;SDS011;61865;50.232;18.614;2023-11-25T04:52:01;20.83;;;7.10;;
73585;SDS011;61865;50.232;18.614;2023-11-25T04:54:26;11.63;;;7.10;;
73585;SDS011;61865;50.232;18.614;2023-11-25T04:56:48;13.35;;;7.40;;
73585;SDS011;61865;50.232;18.614;2023-11-25T04:59:10;15.43;;;8.25;;
73585;SDS011;61865;50.232;18.614;2023-11-25T05:01:32;16.08;;;6.78;;
73585;SDS011;61865;50.232;18.614;2023-11-25T05:03:55;11.10;;;7.60;;
73585;SDS011;61865;50.232;18.614;2023-11-25T05:06:17;12.82;;;6.38;;
73585;SDS011;61865;50.232;18.614;2023-11-25T05:08:40;14.88;;;9.52;;
73585;SDS011;61865;50.232;18.614;2023-11-25T05:11:07;11.70;;;7.25;;
73585;SDS011;61865;50.232;18.614;2023-11-25T05:13:29;10.05;;;6.90;;
73585;SDS011;61865;50.232;18.614;2023-11-25T05:15:51;14.52;;;9.50;;
73585;SDS011;61865;50.232;18.614;2023-11-25T05:18:14;16.00;;;9.52;;
73585;SDS011;61865;50.232;18.614;2023-11-25T05:20:37;10.50;;;8.88;;
73585;SDS011;61865;50.232;18.614;2023-11-25T05:22:59;12.93;;;8.38;;
73585;SDS011;61865;50.232;18.614;2023-11-25T05:25:22;15.52;;;6.32;;
73585;SDS011;61865;50.232;18.614;2023-11-25T05:27:45;8.95;;;7.00;;
73585;SDS011;61865;50.232;18.614;2023-11-25T05:30:08;9.82;;;6.88;;
73585;SDS011;61865;50.232;18.614;2023-11-25T05:32:33;9.00;;;6.25;;
73585;SDS011;61865;50.232;18.614;2023-11-25T05:34:55;8.88;;;6.38;;
73585;SDS011;61865;50.232;18.614;2023-11-25T05:37:17;13.40;;;8.25;;
73585;SDS011;61865;50.232;18.614;2023-11-25T05:39:40;9.63;;;5.07;;
73585;SDS011;61865;50.232;18.614;2023-11-25T05:42:03;8.10;;;5.57;;
73585;SDS011;61865;50.232;18.614;2023-11-25T05:44:27;12.40;;;7.75;;
73585;SDS011;61865;50.232;18.614;2023-11-25T05:46:50;12.60;;;7.40;;
73585;SDS011;61865;50.232;18.614;2023-11-25T05:49:12;10.40;;;6.47;;
73585;SDS011;61865;50.232;18.614;2023-11-25T05:51:35;11.35;;;7.43;;
73585;SDS011;61865;50.232;18.614;2023-11-25T05:53:58;10.85;;;6.72;;
73585;SDS011;61865;50.232;18.614;2023-11-25T05:56:20;10.80;;;6.93;;
73585;SDS011;61865;50.232;18.614;2023-11-25T05:58:44;10.60;;;6.75;;
73585;SDS011;61865;50.232;18.614;2023-11-25T06:01:08;8.18;;;5.85;;
73585;SDS011;61865;50.232;18.614;2023-11-25T06:03:30;10.18;;;7.22;;
73585;SDS011;61865;50.232;18.614;2023-11-25T06:05:52;9.98;;;6.72;;
73585;SDS011;61865;50.232;18.614;2023-11-25T06:08:14;10.40;;;7.25;;
73585;SDS011;61865;50.232;18.614;2023-11-25T06:10:36;13.15;;;8.00;;
73585;SDS011;61865;50.232;18.614;2023-11-25T06:12:59;13.73;;;7.85;;
73585;SDS011;61865;50.232;18.614;2023-11-25T06:15:24;6.95;;;5.38;;
73585;SDS011;61865;50.232;18.614;2023-11-25T06:17:48;8.93;;;6.20;;
73585;SDS011;61865;50.232;18.614;2023-11-25T06:20:11;7.45;;;4.97;;
73585;SDS011;61865;50.232;18.614;2023-11-25T06:22:33;14.07;;;4.25;;
73585;SDS011;61865;50.232;18.614;2023-11-25T06:24:55;8.95;;;5.20;;
73585;SDS011;61865;50.232;18.614;2023-11-25T06:27:20;9.00;;;5.93;;
73585;SDS011;61865;50.232;18.614;2023-11-25T06:29:43;7.70;;;6.28;;
73585;SDS011;61865;50.232;18.614;2023-11-25T06:32:06;15.73;;;8.07;;
73585;SDS011;61865;50.232;18.614;2023-11-25T06:34:29;13.00;;;7.63;;
73585;SDS011;61865;50.232;18.614;2023-11-25T06:36:52;12.05;;;6.95;;
73585;SDS011;61865;50.232;18.614;2023-11-25T06:39:15;6.88;;;5.53;;
73585;SDS011;61865;50.232;18.614;2023-11-25T06:41:41;13.38;;;8.48;;
73585;SDS011;61865;50.232;18.614;2023-11-25T06:44:08;16.88;;;8.77;;
73585;SDS011;61865;50.232;18.614;2023-11-25T06:46:31;13.48;;;7.03;;
73585;SDS011;61865;50.232;18.614;2023-11-25T06:48:53;12.52;;;6.55;;
73585;SDS011;61865;50.232;18.614;2023-11-25T06:51:17;9.02;;;6.03;;
73585;SDS011;61865;50.232;18.614;2023-11-25T06:53:39;10.95;;;8.52;;
73585;SDS011;61865;50.232;18.614;2023-11-25T06:56:01;12.57;;;6.80;;
73585;SDS011;61865;50.232;18.614;2023-11-25T06:58:24;11.32;;;6.90;;
73585;SDS011;61865;50.232;18.614;2023-11-25T07:00:46;12.23;;;8.07;;
73585;SDS011;61865;50.232;18.614;2023-11-25T07:03:09;13.70;;;8.45;;
73585;SDS011;61865;50.232;18.614;2023-11-25T07:05:32;11.25;;;6.45;;
73585;SDS011;61865;50.232;18.614;2023-11-25T07:07:55;12.20;;;7.07;;
73585;SDS011;61865;50.232;18.614;2023-11-25T07:10:18;7.93;;;5.35;;
73585;SDS011;61865;50.232;18.614;2023-11-25T07:12:41;10.20;;;6.25;;
73585;SDS011;61865;50.232;18.614;2023-11-25T07:15:04;14.68;;;7.45;;
73585;SDS011;61865;50.232;18.614;2023-11-25T07:17:26;10.88;;;6.75;;
73585;SDS011;61865;50.232;18.614;2023-11-25T07:19:49;7.70;;;4.68;;
73585;SDS011;61865;50.232;18.614;2023-11-25T07:22:12;10.60;;;6.55;;
73585;SDS011;61865;50.232;18.614;2023-11-25T07:24:36;11.68;;;6.65;;
73585;SDS011;61865;50.232;18.614;2023-11-25T07:26:59;12.88;;;7.55;;
73585;SDS011;61865;50.232;18.614;2023-11-25T07:29:25;12.85;;;6.30;;
73585;SDS011;61865;50.232;18.614;2023-11-25T07:31:51;9.40;;;5.82;;
73585;SDS011;61865;50.232;18.614;2023-11-25T07:34:14;12.82;;;6.82;;
73585;SDS011;61865;50.232;18.614;2023-11-25T07:36:36;16.08;;;6.65;;
73585;SDS011;61865;50.232;18.614;2023-11-25T07:39:01;15.10;;;6.75;;
73585;SDS011;61865;50.232;18.614;2023-11-25T07:41:26;9.00;;;5.43;;
73585;SDS011;61865;50.232;18.614;2023-11-25T07:43:48;9.75;;;5.93;;
73585;SDS011;61865;50.232;18.614;2023-11-25T07:46:11;10.52;;;6.68;;
73585;SDS011;61865;50.232;18.614;2023-11-25T07:48:33;10.23;;;5.10;;
73585;SDS011;61865;50.232;18.614;2023-11-25T07:50:55;11.02;;;6.47;;
73585;SDS011;61865;50.232;18.614;2023-11-25T07:53:18;9.43;;;6.30;;
73585;SDS011;61865;50.232;18.614;2023-11-25T07:55:42;10.73;;;7.07;;
73585;SDS011;61865;50.232;18.614;2023-11-25T07:58:06;9.48;;;6.15;;
73585;SDS011;61865;50.232;18.614;2023-11-25T08:00:29;8.73;;;6.43;;
73585;SDS011;61865;50.232;18.614;2023-11-25T08:02:51;8.95;;;6.90;;
73585;SDS011;61865;50.232;18.614;2023-11-25T08:05:15;16.80;;;6.72;;
73585;SDS011;61865;50.232;18.614;2023-11-25T08:07:42;10.32;;;6.55;;
73585;SDS011;61865;50.232;18.614;2023-11-25T08:10:05;10.73;;;6.13;;
73585;SDS011;61865;50.232;18.614;2023-11-25T08:12:27;10.07;;;6.22;;
73585;SDS011;61865;50.232;18.614;2023-11-25T08:14:52;5.88;;;4.38;;
73585;SDS011;61865;50.232;18.614;2023-11-25T08:17:15;10.93;;;5.95;;
73585;SDS011;61865;50.232;18.614;2023-11-25T08:19:38;9.57;;;5.95;;
73585;SDS011;61865;50.232;18.614;2023-11-25T08:22:00;8.80;;;5.32;;
73585;SDS011;61865;50.232;18.614;2023-11-25T08:24:22;9.15;;;4.13;;
73585;SDS011;61865;50.232;18.614;2023-11-25T08:26:44;10.85;;;6.10;;
73585;SDS011;61865;50.232;18.614;2023-11-25T08:29:07;9.85;;;4.90;;
73585;SDS011;61865;50.232;18.614;2023-11-25T08:31:30;12.90;;;7.13;;
73585;SDS011;61865;50.232;18.614;2023-11-25T08:33:53;13.45;;;7.63;;
73585;SDS011;61865;50.232;18.614;2023-11-25T08:36:15;8.40;;;5.60;;
73585;SDS011;61865;50.232;18.614;2023-11-25T08:38:38;7.65;;;4.97;;
73585;SDS011;61865;50.232;18.614;2023-11-25T08:41:00;8.88;;;4.90;;
73585;SDS011;61865;50.232;18.614;2023-11-25T08:43:23;11.73;;;6.13;;
73585;SDS011;61865;50.232;18.614;2023-11-25T08:45:47;8.02;;;5.07;;
73585;SDS011;61865;50.232;18.614;2023-11-25T08:48:10;10.45;;;6.25;;
73585;SDS011;61865;50.232;18.614;2023-11-25T08:50:33;6.75;;;4.53;;
73585;SDS011;61865;50.232;18.614;2023-11-25T08:52:56;6.22;;;4.32;;
73585;SDS011;61865;50.232;18.614;2023-11-25T08:55:18;7.63;;;5.80;;
73585;SDS011;61865;50.232;18.614;2023-11-25T08:57:42;8.13;;;4.80;;
73585;SDS011;61865;50.232;18.614;2023-11-25T09:02:34;8.65;;;4.30;;
73585;SDS011;61865;50.232;18.614;2023-11-25T09:04:58;8.27;;;4.55;;
73585;SDS011;61865;50.232;18.614;2023-11-25T09:07:20;9.48;;;5.45;;
73585;SDS011;61865;50.232;18.614;2023-11-25T09:09:44;8.00;;;4.90;;
73585;SDS011;61865;50.232;18.614;2023-11-25T09:12:09;7.85;;;4.45;;
73585;SDS011;61865;50.232;18.614;2023-11-25T09:14:32;7.80;;;3.97;;
73585;SDS011;61865;50.232;18.614;2023-11-25T09:16:54;7.72;;;4.75;;
73585;SDS011;61865;50.232;18.614;2023-11-25T09:19:17;7.72;;;4.28;;
73585;SDS011;61865;50.232;18.614;2023-11-25T09:21:40;6.25;;;3.55;;
73585;SDS011;61865;50.232;18.614;2023-11-25T09:24:05;11.18;;;5.38;;
73585;SDS011;61865;50.232;18.614;2023-11-25T09:26:27;11.65;;;5.78;;
73585;SDS011;61865;50.232;18.614;2023-11-25T09:28:50;6.50;;;4.63;;
73585;SDS011;61865;50.232;18.614;2023-11-25T09:31:13;10.68;;;5.25;;
73585;SDS011;61865;50.232;18.614;2023-11-25T09:33:35;9.20;;;4.97;;
73585;SDS011;61865;50.232;18.614;2023-11-25T09:35:58;9.00;;;6.03;;
73585;SDS011;61865;50.232;18.614;2023-11-25T09:38:22;9.30;;;4.97;;
73585;SDS011;61865;50.232;18.614;2023-11-25T09:40:45;9.93;;;5.15;;
73585;SDS011;61865;50.232;18.614;2023-11-25T09:43:07;9.48;;;5.30;;
73585;SDS011;61865;50.232;18.614;2023-11-25T09:45:29;11.90;;;5.28;;
73585;SDS011;61865;50.232;18.614;2023-11-25T09:47:52;8.30;;;5.22;;
73585;SDS011;61865;50.232;18.614;2023-11-25T09:50:14;8.70;;;5.32;;
73585;SDS011;61865;50.232;18.614;2023-11-25T09:52:39;11.00;;;5.97;;
73585;SDS011;61865;50.232;18.614;2023-11-25T09:55:03;8.65;;;4.85;;
73585;SDS011;61865;50.232;18.614;2023-11-25T09:57:26;10.07;;;4.78;;
73585;SDS011;61865;50.232;18.614;2023-11-25T09:59:52;9.50;;;4.30;;
73585;SDS011;61865;50.232;18.614;2023-11-25T10:02:15;10.15;;;5.35;;
73585;SDS011;61865;50.232;18.614;2023-11-25T10:04:37;11.75;;;7.13;;
73585;SDS011;61865;50.232;18.614;2023-11-25T10:07:00;18.98;;;7.93;;
73585;SDS011;61865;50.232;18.614;2023-11-25T10:09:22;9.80;;;5.43;;
73585;SDS011;61865;50.232;18.614;2023-11-25T10:11:46;5.90;;;3.47;;
73585;SDS011;61865;50.232;18.614;2023-11-25T10:14:09;7.28;;;3.63;;
73585;SDS011;61865;50.232;18.614;2023-11-25T10:16:33;7.18;;;3.22;;
73585;SDS011;61865;50.232;18.614;2023-11-25T10:18:55;5.07;;;3.15;;
73585;SDS011;61865;50.232;18.614;2023-11-25T10:21:18;5.90;;;3.65;;
73585;SDS011;61865;50.232;18.614;2023-11-25T10:23:41;12.63;;;5.05;;
73585;SDS011;61865;50.232;18.614;2023-11-25T10:26:04;7.28;;;4.03;;
73585;SDS011;61865;50.232;18.614;2023-11-25T10:28:27;9.63;;;4.85;;
73585;SDS011;61865;50.232;18.614;2023-11-25T10:30:53;8.75;;;4.05;;
73585;SDS011;61865;50.232;18.614;2023-11-25T10:33:16;8.48;;;3.45;;
73585;SDS011;61865;50.232;18.614;2023-11-25T10:35:38;6.20;;;3.20;;
73585;SDS011;61865;50.232;18.614;2023-11-25T10:38:03;4.80;;;3.20;;
73585;SDS011;61865;50.232;18.614;2023-11-25T10:40:26;12.85;;;2.97;;
73585;SDS011;61865;50.232;18.614;2023-11-25T10:42:48;8.18;;;4.63;;
73585;SDS011;61865;50.232;18.614;2023-11-25T10:45:15;8.27;;;4.88;;
73585;SDS011;61865;50.232;18.614;2023-11-25T10:47:37;8.18;;;4.38;;
73585;SDS011;61865;50.232;18.614;2023-11-25T10:50:00;12.90;;;7.03;;
73585;SDS011;61865;50.232;18.614;2023-11-25T10:52:23;14.20;;;7.85;;
73585;SDS011;61865;50.232;18.614;2023-11-25T10:54:45;11.50;;;6.53;;
73585;SDS011;61865;50.232;18.614;2023-11-25T10:57:08;11.57;;;6.20;;
73585;SDS011;61865;50.232;18.614;2023-11-25T10:59:32;8.52;;;5.53;;
73585;SDS011;61865;50.232;18.614;2023-11-25T11:01:56;13.90;;;8.00;;
73585;SDS011;61865;50.232;18.614;2023-11-25T11:04:21;18.55;;;9.68;;
73585;SDS011;61865;50.232;18.614;2023-11-25T11:06:47;9.48;;;5.90;;
73585;SDS011;61865;50.232;18.614;2023-11-25T11:09:09;12.50;;;7.63;;
73585;SDS011;61865;50.232;18.614;2023-11-25T11:11:39;14.20;;;6.55;;
73585;SDS011;61865;50.232;18.614;2023-11-25T11:14:10;6.38;;;4.55;;
73585;SDS011;61865;50.232;18.614;2023-11-25T11:16:33;12.20;;;6.60;;
73585;SDS011;61865;50.232;18.614;2023-11-25T11:18:59;11.25;;;6.65;;
73585;SDS011;61865;50.232;18.614;2023-11-25T11:21:22;11.45;;;6.97;;
73585;SDS011;61865;50.232;18.614;2023-11-25T11:23:49;8.18;;;5.70;;
73585;SDS011;61865;50.232;18.614;2023-11-25T11:26:18;7.28;;;5.10;;
73585;SDS011;61865;50.232;18.614;2023-11-25T11:28:48;21.08;;;8.13;;
73585;SDS011;61865;50.232;18.614;2023-11-25T11:31:22;6.85;;;3.80;;
73585;SDS011;61865;50.232;18.614;2023-11-25T11:33:53;7.35;;;4.20;;
73585;SDS011;61865;50.232;18.614;2023-11-25T11:36:20;11.18;;;4.45;;
73585;SDS011;61865;50.232;18.614;2023-11-25T11:38:42;9.10;;;4.50;;
73585;SDS011;61865;50.232;18.614;2023-11-25T11:43:43;7.97;;;4.20;;
73585;SDS011;61865;50.232;18.614;2023-11-25T11:46:21;4.75;;;3.08;;
73585;SDS011;61865;50.232;18.614;2023-11-25T11:48:43;5.93;;;3.63;;
73585;SDS011;61865;50.232;18.614;2023-11-25T11:51:06;9.52;;;5.85;;
73585;SDS011;61865;50.232;18.614;2023-11-25T11:53:32;6.95;;;4.07;;
73585;SDS011;61865;50.232;18.614;2023-11-25T11:55:54;10.95;;;5.72;;
73585;SDS011;61865;50.232;18.614;2023-11-25T11:58:18;13.38;;;5.60;;
73585;SDS011;61865;50.232;18.614;2023-11-25T12:00:41;6.70;;;4.43;;
73585;SDS011;61865;50.232;18.614;2023-11-25T12:03:03;16.75;;;5.30;;
73585;SDS011;61865;50.232;18.614;2023-11-25T12:05:26;11.38;;;6.18;;
73585;SDS011;61865;50.232;18.614;2023-11-25T12:07:49;13.90;;;5.60;;
73585;SDS011;61865;50.232;18.614;2023-11-25T12:10:12;12.13;;;5.25;;
73585;SDS011;61865;50.232;18.614;2023-11-25T12:12:39;7.20;;;4.30;;
73585;SDS011;61865;50.232;18.614;2023-11-25T12:15:01;7.95;;;4.18;;
73585;SDS011;61865;50.232;18.614;2023-11-25T12:17:24;10.27;;;5.55;;
73585;SDS011;61865;50.232;18.614;2023-11-25T12:19:47;18.58;;;8.15;;
73585;SDS011;61865;50.232;18.614;2023-11-25T12:22:10;20.88;;;9.40;;
73585;SDS011;61865;50.232;18.614;2023-11-25T12:26:56;16.00;;;6.45;;
73585;SDS011;61865;50.232;18.614;2023-11-25T12:29:18;13.80;;;6.93;;
73585;SDS011;61865;50.232;18.614;2023-11-25T12:31:43;10.43;;;5.88;;
73585;SDS011;61865;50.232;18.614;2023-11-25T12:34:05;10.05;;;5.70;;
73585;SDS011;61865;50.232;18.614;2023-11-25T12:36:28;8.40;;;4.43;;
73585;SDS011;61865;50.232;18.614;2023-11-25T12:38:50;9.60;;;6.00;;
73585;SDS011;61865;50.232;18.614;2023-11-25T12:41:13;10.13;;;4.93;;
73585;SDS011;61865;50.232;18.614;2023-11-25T12:43:37;16.50;;;7.13;;
73585;SDS011;61865;50.232;18.614;2023-11-25T12:46:02;9.82;;;4.78;;
73585;SDS011;61865;50.232;18.614;2023-11-25T12:48:30;8.07;;;4.07;;
73585;SDS011;61865;50.232;18.614;2023-11-25T12:50:59;11.82;;;6.13;;
73585;SDS011;61865;50.232;18.614;2023-11-25T12:53:24;11.65;;;5.93;;
73585;SDS011;61865;50.232;18.614;2023-11-25T12:55:46;5.30;;;3.65;;
73585;SDS011;61865;50.232;18.614;2023-11-25T12:58:10;6.30;;;3.65;;
73585;SDS011;61865;50.232;18.614;2023-11-25T13:00:33;7.78;;;4.53;;
73585;SDS011;61865;50.232;18.614;2023-11-25T13:02:56;10.13;;;5.53;;
73585;SDS011;61865;50.232;18.614;2023-11-25T13:05:19;10.35;;;4.28;;
73585;SDS011;61865;50.232;18.614;2023-11-25T13:07:44;7.50;;;3.60;;
73585;SDS011;61865;50.232;18.614;2023-11-25T13:10:06;9.32;;;4.90;;
73585;SDS011;61865;50.232;18.614;2023-11-25T13:12:29;5.85;;;3.70;;
73585;SDS011;61865;50.232;18.614;2023-11-25T13:14:52;14.27;;;5.68;;
73585;SDS011;61865;50.232;18.614;2023-11-25T13:17:17;6.80;;;4.07;;
73585;SDS011;61865;50.232;18.614;2023-11-25T13:19:39;14.32;;;6.50;;
73585;SDS011;61865;50.232;18.614;2023-11-25T13:22:02;19.60;;;8.10;;
73585;SDS011;61865;50.232;18.614;2023-11-25T13:24:24;12.52;;;5.97;;
73585;SDS011;61865;50.232;18.614;2023-11-25T13:26:46;16.23;;;6.40;;
73585;SDS011;61865;50.232;18.614;2023-11-25T13:29:08;10.80;;;5.65;;
73585;SDS011;61865;50.232;18.614;2023-11-25T13:31:31;17.02;;;6.75;;
73585;SDS011;61865;50.232;18.614;2023-11-25T13:33:56;12.02;;;6.18;;
73585;SDS011;61865;50.232;18.614;2023-11-25T13:36:19;10.90;;;5.50;;
73585;SDS011;61865;50.232;18.614;2023-11-25T13:38:41;12.30;;;5.72;;
73585;SDS011;61865;50.232;18.614;2023-11-25T13:41:03;9.63;;;5.05;;
73585;SDS011;61865;50.232;18.614;2023-11-25T13:43:25;9.98;;;5.25;;
73585;SDS011;61865;50.232;18.614;2023-11-25T13:45:47;10.00;;;4.88;;
73585;SDS011;61865;50.232;18.614;2023-11-25T13:48:10;10.32;;;5.57;;
73585;SDS011;61865;50.232;18.614;2023-11-25T13:50:37;11.15;;;5.30;;
73585;SDS011;61865;50.232;18.614;2023-11-25T13:53:00;10.32;;;4.47;;
73585;SDS011;61865;50.232;18.614;2023-11-25T13:55:24;3.65;;;3.03;;
73585;SDS011;61865;50.232;18.614;2023-11-25T13:57:46;6.57;;;3.50;;
73585;SDS011;61865;50.232;18.614;2023-11-25T14:00:09;7.47;;;4.70;;
73585;SDS011;61865;50.232;18.614;2023-11-25T14:02:32;8.02;;;4.50;;
73585;SDS011;61865;50.232;18.614;2023-11-25T14:04:55;8.90;;;3.83;;
73585;SDS011;61865;50.232;18.614;2023-11-25T14:07:19;4.97;;;3.53;;
73585;SDS011;61865;50.232;18.614;2023-11-25T14:09:41;11.90;;;5.05;;